Hartselle, Alabama
Current Conditions -  °F | °C
As of 4:35 PM on Friday 19 Dec 2014 (Local Time) from KCMD Reporting Station
Clear Clear  
Wind Chill: 37°   Ceiling: Unl
Heat Index: 40°   Visibility: 10mi
Dew Point: 31°   Wind: 5mph
Humidity: 70%   Direction: 360°N
Pressure: 30.19"   Gusts: NA
Location:  34.44°N, 86.94°W
Report Text: KCMD 192235Z AUTO 36004KT 10SM CLR 05/00 A3019 RMK AO2 T00451005
Loading
Personal Weather Stations






























Interactive Weather Map New forecast layout! Learn more

10-Day Weather Forecast

Advertisements
Track Severe Weather on mobile